Time;durP1;ratioP1;P1;durP2;ratioP2;P2;SDS_P1;SDS_P2;PMS_P1;PMS_P2;Temp;Humidity;BMP_temperature;BMP_pressure;BME280_temperature;BME280_humidity;BME280_pressure;Samples;Min_cycle;Max_cycle;Signal;HPM_P1;HPM_P2
2022/03/13 00:00:47;;;;;;;15.10;8.85;;;-13.20;99.90;;;;;;4364698;32;20093;-62
2022/03/13 00:03:17;;;;;;;13.60;7.82;;;-13.20;99.90;;;;;;4377785;32;20146;-62
2022/03/13 00:05:47;;;;;;;12.15;7.55;;;-13.20;99.90;;;;;;4339422;32;20090;-62
2022/03/13 00:08:22;;;;;;;13.50;8.25;;;-13.10;99.90;;;;;;4363780;32;20457;-63
2022/03/13 00:11:07;;;;;;;13.70;7.80;;;-13.30;99.90;;;;;;4364427;32;20089;-62
2022/03/13 00:13:41;;;;;;;13.23;7.82;;;-13.30;99.90;;;;;;4363140;32;20079;-62
2022/03/13 00:16:09;;;;;;;12.65;8.10;;;-13.30;99.90;;;;;;4364173;32;20601;-61
2022/03/13 00:18:39;;;;;;;9.73;6.72;;;-13.40;99.90;;;;;;4378643;32;20165;-63
2022/03/13 00:21:05;;;;;;;10.63;8.00;;;-13.50;99.90;;;;;;4364016;32;20162;-63
2022/03/13 00:23:34;;;;;;;12.20;8.23;;;-13.40;99.90;;;;;;4377353;32;20084;-63
2022/03/13 00:26:04;;;;;;;13.15;8.30;;;-13.40;99.90;;;;;;4377573;32;20097;-62
2022/03/13 00:28:31;;;;;;;13.18;8.13;;;-13.50;99.90;;;;;;4377282;32;20086;-62
2022/03/13 00:30:58;;;;;;;12.05;7.60;;;-13.50;99.90;;;;;;4377399;32;20077;-62
2022/03/13 00:33:25;;;;;;;11.88;8.48;;;-13.40;99.90;;;;;;4377379;32;20153;-62
2022/03/13 00:35:51;;;;;;;12.80;8.60;;;-13.40;99.90;;;;;;4363608;32;20085;-61
2022/03/13 00:38:23;;;;;;;13.77;7.80;;;-13.30;99.90;;;;;;4377420;32;20165;-61
2022/03/13 00:40:51;;;;;;;15.77;8.52;;;-13.30;99.90;;;;;;4364076;32;20124;-62
2022/03/13 00:43:19;;;;;;;12.70;8.02;;;-13.40;99.90;;;;;;4351075;32;20589;-62
2022/03/13 00:45:46;;;;;;;12.32;8.35;;;-13.30;99.90;;;;;;4363316;32;20082;-62
2022/03/13 00:48:13;;;;;;;12.07;8.50;;;-13.40;99.90;;;;;;4377199;32;20059;-62
2022/03/13 00:50:41;;;;;;;14.02;8.05;;;-13.50;99.90;;;;;;4363118;32;20078;-62
2022/03/13 00:53:08;;;;;;;13.80;8.20;;;-13.60;99.90;;;;;;4363516;32;20151;-61
2022/03/13 00:55:34;;;;;;;11.82;7.37;;;-13.60;99.90;;;;;;4376885;32;20082;-60
2022/03/13 00:58:01;;;;;;;11.82;7.62;;;-13.50;99.90;;;;;;4350685;32;20078;-62
2022/03/13 01:00:27;;;;;;;11.55;7.50;;;-13.70;99.90;;;;;;4350146;32;20144;-62
2022/03/13 01:02:54;;;;;;;11.02;7.80;;;-13.70;99.90;;;;;;4376925;32;20078;-62
2022/03/13 01:05:23;;;;;;;15.40;8.27;;;-13.70;99.90;;;;;;4377024;32;20074;-61
2022/03/13 01:07:55;;;;;;;12.35;8.30;;;-13.50;99.90;;;;;;4362628;32;20077;-62
2022/03/13 01:10:22;;;;;;;14.75;8.77;;;-13.50;99.90;;;;;;4362678;32;20083;-61
2022/03/13 01:12:51;;;;;;;14.57;8.68;;;-13.40;99.90;;;;;;4362914;32;20078;-62
2022/03/13 01:15:18;;;;;;;14.25;9.32;;;-13.50;99.90;;;;;;4377307;32;20082;-61
2022/03/13 01:17:45;;;;;;;17.00;10.35;;;-13.80;99.90;;;;;;4363883;32;20173;-62
2022/03/13 01:20:21;;;;;;;18.55;11.88;;;-13.80;99.90;;;;;;4375490;32;20106;-62
2022/03/13 01:22:49;;;;;;;14.40;9.93;;;-13.90;99.90;;;;;;4376518;32;20081;-62
2022/03/13 01:25:17;;;;;;;15.93;11.32;;;-13.70;99.90;;;;;;4362797;32;20061;-62
2022/03/13 01:27:43;;;;;;;17.12;11.00;;;-13.70;99.90;;;;;;4362639;32;20086;-63
2022/03/13 01:30:14;;;;;;;15.07;9.82;;;-13.90;99.90;;;;;;4376604;32;20066;-63
2022/03/13 01:32:42;;;;;;;16.08;11.07;;;-13.90;99.90;;;;;;4376291;32;20079;-62
2022/03/13 01:35:09;;;;;;;12.88;9.60;;;-13.90;99.90;;;;;;4363195;32;20090;-62
2022/03/13 01:37:38;;;;;;;14.27;9.65;;;-13.80;99.90;;;;;;4362585;32;20120;-62
2022/03/13 01:40:12;;;;;;;14.35;8.82;;;-13.80;99.90;;;;;;4376370;32;20152;-62
2022/03/13 01:42:40;;;;;;;13.73;9.02;;;-13.80;99.90;;;;;;4350172;32;20074;-61
2022/03/13 01:45:12;;;;;;;16.92;10.20;;;-13.80;99.90;;;;;;4362690;32;20085;-63
2022/03/13 01:47:38;;;;;;;15.52;9.48;;;-13.90;99.90;;;;;;4376276;32;20135;-62
2022/03/13 01:50:09;;;;;;;13.55;8.70;;;-14.00;99.90;;;;;;4361708;32;20550;-61
2022/03/13 01:52:38;;;;;;;16.10;10.30;;;-14.20;99.90;;;;;;4364014;32;20085;-62
2022/03/13 01:55:06;;;;;;;16.90;10.75;;;-14.00;99.90;;;;;;4376735;32;20097;-62
2022/03/13 01:57:32;;;;;;;18.23;12.37;;;-14.00;99.90;;;;;;4376898;32;20070;-62
2022/03/13 02:00:00;;;;;;;18.37;11.93;;;-13.90;99.90;;;;;;4376233;32;20078;-62
2022/03/13 02:02:29;;;;;;;15.98;10.18;;;-13.80;99.90;;;;;;4375836;32;20539;-62
2022/03/13 02:04:57;;;;;;;17.67;11.40;;;-13.80;99.90;;;;;;4362652;32;20089;-63
2022/03/13 02:07:27;;;;;;;13.55;9.43;;;-13.90;99.90;;;;;;4349897;32;20084;-62
2022/03/13 02:09:54;;;;;;;15.55;9.30;;;-14.00;99.90;;;;;;4362621;32;20080;-62
2022/03/13 02:12:21;;;;;;;15.02;9.32;;;-13.90;99.90;;;;;;4376014;32;20080;-62
2022/03/13 02:14:49;;;;;;;13.57;9.40;;;-13.70;99.90;;;;;;4349920;32;20111;-63
2022/03/13 02:17:35;;;;;;;14.93;9.65;;;-13.80;99.90;;;;;;4362515;32;20093;-62
2022/03/13 02:20:03;;;;;;;14.50;9.05;;;-13.90;99.90;;;;;;4376090;32;20077;-62
2022/03/13 02:22:31;;;;;;;15.23;10.32;;;-13.80;99.90;;;;;;4376536;32;20128;-61
2022/03/13 02:24:57;;;;;;;13.00;9.48;;;-13.80;99.90;;;;;;4350862;32;20089;-61
2022/03/13 02:27:27;;;;;;;12.68;9.50;;;-13.60;99.90;;;;;;4367644;32;20080;-62
2022/03/13 02:29:54;;;;;;;15.52;11.10;;;-13.70;99.90;;;;;;4384805;32;20069;-61
2022/03/13 02:32:20;;;;;;;13.75;9.32;;;-13.60;99.90;;;;;;4393489;32;20136;-61
2022/03/13 02:34:48;;;;;;;16.42;10.35;;;-13.70;99.90;;;;;;4381938;32;20093;-63
2022/03/13 02:37:40;;;;;;;18.35;10.35;;;-13.70;99.90;;;;;;4363982;32;20093;-61
2022/03/13 02:40:14;;;;;;;15.82;10.23;;;-14.00;99.90;;;;;;4358054;32;20084;-61
2022/03/13 02:42:40;;;;;;;16.87;11.50;;;-14.00;99.90;;;;;;4365365;32;20139;-63
2022/03/13 02:45:07;;;;;;;19.73;10.10;;;-14.00;99.90;;;;;;4365220;32;20070;-62
2022/03/13 02:47:33;;;;;;;16.98;11.05;;;-13.90;99.90;;;;;;4364955;32;20165;-63
2022/03/13 02:49:59;;;;;;;15.32;9.52;;;-13.90;99.90;;;;;;4378634;32;20098;-61
2022/03/13 02:52:26;;;;;;;15.20;9.40;;;-13.90;99.90;;;;;;4364572;32;20093;-63
2022/03/13 02:54:52;;;;;;;13.27;8.90;;;-13.70;99.90;;;;;;4365222;32;20517;-63
2022/03/13 02:57:19;;;;;;;14.23;9.52;;;-13.60;99.90;;;;;;4365494;32;20171;-62
2022/03/13 02:59:45;;;;;;;14.60;9.65;;;-13.70;99.90;;;;;;4364761;32;20161;-62
2022/03/13 03:02:11;;;;;;;17.20;10.35;;;-13.60;99.90;;;;;;4378266;32;20096;-61
2022/03/13 03:04:38;;;;;;;14.18;9.32;;;-13.50;99.90;;;;;;4364590;32;20086;-63
2022/03/13 03:07:05;;;;;;;18.20;9.55;;;-13.60;99.90;;;;;;4378532;32;20090;-62
2022/03/13 03:09:33;;;;;;;15.60;10.20;;;-13.70;99.90;;;;;;4364704;32;20075;-62
2022/03/13 03:12:04;;;;;;;14.57;9.73;;;-13.60;99.90;;;;;;4378247;32;20065;-63
2022/03/13 03:14:31;;;;;;;15.95;9.88;;;-13.60;99.90;;;;;;4352084;32;20163;-62
2022/03/13 03:16:58;;;;;;;15.90;9.65;;;-13.60;99.90;;;;;;4365013;32;20078;-62
2022/03/13 03:19:26;;;;;;;16.12;10.40;;;-13.50;99.90;;;;;;4351889;32;20472;-62
2022/03/13 03:21:53;;;;;;;18.45;10.52;;;-13.50;99.90;;;;;;4378387;32;20066;-62
2022/03/13 03:24:22;;;;;;;17.02;9.85;;;-13.50;99.90;;;;;;4364525;32;20149;-62
2022/03/13 03:26:49;;;;;;;15.48;10.35;;;-13.40;99.90;;;;;;4378860;32;20166;-62
2022/03/13 03:29:16;;;;;;;15.70;9.90;;;-13.20;99.90;;;;;;4364099;32;20495;-62
2022/03/13 03:31:48;;;;;;;16.35;10.20;;;-13.50;99.90;;;;;;4364038;32;20105;-62
2022/03/13 03:34:21;;;;;;;16.27;10.77;;;-13.40;99.90;;;;;;4364286;32;20087;-62
2022/03/13 03:36:51;;;;;;;16.42;9.82;;;-13.40;99.90;;;;;;4364179;32;20093;-62
2022/03/13 03:39:20;;;;;;;15.50;9.77;;;-13.40;99.90;;;;;;4364899;32;20082;-63
2022/03/13 03:41:49;;;;;;;19.15;11.02;;;-13.40;99.90;;;;;;4364179;32;20081;-62
2022/03/13 03:44:15;;;;;;;14.15;10.15;;;-13.50;99.90;;;;;;4364304;32;20535;-62
2022/03/13 03:47:56;;;;;;;14.90;10.77;;;-13.40;99.90;;;;;;3857305;37;20054;-63
2022/03/13 03:50:23;;;;;;;18.55;11.80;;;-13.50;99.90;;;;;;4418893;32;20065;-63
2022/03/13 03:52:55;;;;;;;18.85;11.45;;;-13.70;99.90;;;;;;4418417;32;20102;-62
2022/03/13 03:55:23;;;;;;;17.77;11.18;;;-13.60;99.90;;;;;;4419072;32;20145;-62
2022/03/13 03:57:49;;;;;;;15.82;11.52;;;-13.40;99.90;;;;;;4406292;32;20105;-63
2022/03/13 04:00:16;;;;;;;22.02;13.25;;;-13.30;99.90;;;;;;4418910;32;20092;-62
2022/03/13 04:02:43;;;;;;;21.35;11.65;;;-13.30;99.90;;;;;;4419244;32;20073;-62
2022/03/13 04:05:11;;;;;;;17.55;11.55;;;-13.10;99.90;;;;;;4403287;32;20077;-63
2022/03/13 04:07:37;;;;;;;20.00;11.77;;;-13.30;99.90;;;;;;4403729;32;20089;-62
2022/03/13 04:10:08;;;;;;;16.00;11.30;;;-13.40;99.90;;;;;;4402787;32;20081;-61
2022/03/13 04:12:36;;;;;;;20.05;12.20;;;-13.30;99.90;;;;;;4390427;32;20509;-62
2022/03/13 04:15:03;;;;;;;20.35;12.75;;;-13.10;99.90;;;;;;4404555;32;20074;-62
2022/03/13 04:17:31;;;;;;;17.77;11.70;;;-13.30;99.90;;;;;;4404558;32;20081;-61
2022/03/13 04:19:59;;;;;;;20.50;13.20;;;-13.10;99.90;;;;;;4402565;32;20162;-62
2022/03/13 04:22:27;;;;;;;16.02;10.57;;;-13.10;99.90;;;;;;4402700;32;20082;-62
2022/03/13 04:24:53;;;;;;;17.87;10.52;;;-12.90;99.90;;;;;;4403354;32;20089;-62
2022/03/13 04:27:20;;;;;;;16.83;10.60;;;-13.00;99.90;;;;;;4404159;32;20083;-62
2022/03/13 04:29:46;;;;;;;16.75;11.23;;;-13.00;99.90;;;;;;4404007;32;20105;-62
2022/03/13 04:32:13;;;;;;;17.70;10.32;;;-13.00;99.90;;;;;;4404057;32;20081;-63
2022/03/13 04:34:40;;;;;;;18.37;10.55;;;-13.00;99.90;;;;;;4403189;32;20065;-61
2022/03/13 04:37:06;;;;;;;16.05;10.23;;;-12.70;99.90;;;;;;4403258;32;20173;-62
2022/03/13 04:39:35;;;;;;;16.48;10.18;;;-12.50;99.90;;;;;;4389834;32;20510;-62
2022/03/13 04:42:06;;;;;;;17.60;10.23;;;-12.60;99.90;;;;;;4403788;32;20069;-61
2022/03/13 04:44:34;;;;;;;20.60;10.98;;;-12.70;99.90;;;;;;4402334;32;20151;-62
2022/03/13 04:47:01;;;;;;;15.35;10.25;;;-12.50;99.90;;;;;;4403481;32;20101;-61
2022/03/13 04:49:27;;;;;;;17.30;11.23;;;-12.60;99.90;;;;;;4390543;32;20089;-61
2022/03/13 04:51:54;;;;;;;13.80;10.23;;;-12.50;99.90;;;;;;4402555;32;20063;-62
2022/03/13 04:54:20;;;;;;;18.92;10.88;;;-12.40;99.90;;;;;;4402359;32;20085;-61
2022/03/13 04:56:47;;;;;;;15.63;10.25;;;-12.40;99.90;;;;;;4403859;32;20508;-61
2022/03/13 04:59:13;;;;;;;16.37;10.77;;;-12.30;99.90;;;;;;4392788;32;20230;-61
2022/03/13 05:01:40;;;;;;;16.73;10.85;;;-12.20;99.90;;;;;;4392364;32;20504;-61
2022/03/13 05:04:07;;;;;;;18.55;10.55;;;-12.20;99.90;;;;;;4392367;32;20088;-63
2022/03/13 05:06:36;;;;;;;17.45;10.85;;;-12.00;99.90;;;;;;4393454;32;20086;-61
2022/03/13 05:09:06;;;;;;;16.02;10.90;;;-12.10;99.90;;;;;;4379957;32;20506;-61
2022/03/13 05:11:33;;;;;;;16.65;10.88;;;-12.00;99.90;;;;;;4393359;32;20078;-62
2022/03/13 05:13:59;;;;;;;18.92;11.02;;;-12.00;99.90;;;;;;4392025;32;20100;-61
2022/03/13 05:16:26;;;;;;;16.95;12.07;;;-11.90;99.90;;;;;;4392091;32;20085;-62
2022/03/13 05:18:52;;;;;;;18.20;11.98;;;-12.00;99.90;;;;;;4391853;32;20076;-63
2022/03/13 05:21:19;;;;;;;16.33;11.10;;;-10.30;99.90;;;;;;4393332;32;20066;-62
2022/03/13 05:23:45;;;;;;;17.85;12.18;;;-9.00;99.90;;;;;;4393456;32;20073;-62
2022/03/13 05:26:12;;;;;;;18.62;12.05;;;-8.70;99.90;;;;;;4393130;32;20103;-62
2022/03/13 05:28:38;;;;;;;19.27;11.60;;;-8.60;99.90;;;;;;4379714;32;20102;-62
2022/03/13 05:31:04;;;;;;;16.80;11.40;;;-8.30;99.30;;;;;;4379858;32;20096;-63
2022/03/13 05:33:31;;;;;;;18.80;11.48;;;-8.10;97.30;;;;;;4393718;32;20570;-62
2022/03/13 05:35:59;;;;;;;20.95;12.93;;;-8.40;99.10;;;;;;4393514;32;20076;-61
2022/03/13 05:38:25;;;;;;;18.02;12.60;;;-8.20;98.00;;;;;;4391753;32;20460;-61
2022/03/13 05:40:52;;;;;;;15.90;11.52;;;-7.50;96.50;;;;;;4392063;32;20078;-62
2022/03/13 05:43:19;;;;;;;21.58;11.95;;;-7.00;95.20;;;;;;4391969;32;20089;-62
2022/03/13 05:45:46;;;;;;;16.87;11.73;;;-6.70;93.40;;;;;;4391611;32;20109;-63
2022/03/13 05:48:15;;;;;;;17.40;11.23;;;-7.10;93.10;;;;;;4392145;32;20082;-62
2022/03/13 05:50:41;;;;;;;21.73;12.10;;;-7.70;93.90;;;;;;4393649;32;20078;-62
2022/03/13 05:53:08;;;;;;;17.77;12.15;;;-7.70;94.30;;;;;;4392696;32;20504;-62
2022/03/13 05:55:34;;;;;;;19.67;12.50;;;-7.10;93.70;;;;;;4394271;32;20089;-63
2022/03/13 05:58:01;;;;;;;17.12;11.35;;;-7.10;93.00;;;;;;4392230;32;20084;-61
2022/03/13 06:00:32;;;;;;;18.55;11.88;;;-6.80;91.80;;;;;;4379322;32;20604;-62
2022/03/13 06:03:00;;;;;;;17.83;12.95;;;-6.50;90.60;;;;;;4392100;32;20132;-62
2022/03/13 06:05:27;;;;;;;18.67;10.80;;;-6.80;90.90;;;;;;4391887;32;20073;-62
2022/03/13 06:07:55;;;;;;;17.65;11.60;;;-6.40;89.90;;;;;;4392436;32;20073;-61
2022/03/13 06:10:22;;;;;;;17.33;11.02;;;-6.20;88.00;;;;;;4390283;32;20176;-62
2022/03/13 06:12:49;;;;;;;17.83;11.65;;;-6.30;87.80;;;;;;4392747;32;20483;-62
2022/03/13 06:15:17;;;;;;;20.10;11.23;;;-6.00;86.80;;;;;;4391312;32;20086;-61
2022/03/13 06:17:47;;;;;;;18.02;11.00;;;-6.10;84.30;;;;;;4391433;32;20161;-62
2022/03/13 06:20:16;;;;;;;18.67;11.23;;;-6.30;84.50;;;;;;4391888;32;20073;-62
2022/03/13 06:22:46;;;;;;;16.00;11.25;;;-7.70;91.80;;;;;;4392322;32;20107;-61
2022/03/13 06:25:13;;;;;;;22.48;11.82;;;-8.70;95.50;;;;;;4378631;32;20162;-62
2022/03/13 06:27:41;;;;;;;16.50;11.15;;;-8.40;97.40;;;;;;4392165;32;20085;-62
2022/03/13 06:30:14;;;;;;;17.10;11.38;;;-8.50;98.00;;;;;;4391022;32;20544;-62
2022/03/13 06:32:42;;;;;;;18.00;12.05;;;-8.60;99.50;;;;;;4390911;32;20073;-63
2022/03/13 06:35:10;;;;;;;19.02;11.30;;;-8.70;99.00;;;;;;4392054;32;20081;-62
2022/03/13 06:37:38;;;;;;;19.30;11.90;;;-8.30;99.50;;;;;;4378522;32;20084;-61
2022/03/13 06:40:07;;;;;;;20.20;10.70;;;-8.60;99.20;;;;;;4391099;32;20153;-62
2022/03/13 06:42:34;;;;;;;17.37;11.75;;;-8.40;99.40;;;;;;4390657;32;20142;-62
2022/03/13 06:45:01;;;;;;;21.08;12.35;;;-8.30;99.30;;;;;;4391824;32;20128;-63
2022/03/13 06:47:27;;;;;;;17.85;11.57;;;-8.40;99.70;;;;;;4390788;32;20146;-63
2022/03/13 06:49:54;;;;;;;19.50;11.93;;;-8.30;98.70;;;;;;4391752;32;20149;-62
2022/03/13 06:52:20;;;;;;;19.50;11.60;;;-8.50;98.70;;;;;;4392344;32;20184;-62
2022/03/13 06:54:47;;;;;;;16.10;11.57;;;-8.30;99.20;;;;;;4379291;32;20109;-62
2022/03/13 06:57:15;;;;;;;18.48;11.30;;;-8.30;99.20;;;;;;4378061;32;20101;-61
2022/03/13 06:59:43;;;;;;;19.08;11.57;;;-8.00;98.10;;;;;;4377999;32;20101;-62
2022/03/13 07:02:13;;;;;;;18.45;12.52;;;-8.20;98.40;;;;;;4390251;32;20081;-62
2022/03/13 07:04:40;;;;;;;16.48;10.20;;;-8.30;99.90;;;;;;4390235;32;20094;-61
2022/03/13 07:07:06;;;;;;;19.42;11.38;;;-8.00;98.70;;;;;;4390956;32;20169;-62
2022/03/13 07:09:33;;;;;;;17.40;11.10;;;-7.60;97.70;;;;;;4391138;32;20089;-61
2022/03/13 07:12:00;;;;;;;17.10;10.82;;;-8.10;97.60;;;;;;4390931;32;20092;-61
2022/03/13 07:14:29;;;;;;;19.15;12.65;;;-7.50;97.20;;;;;;4377902;32;20157;-61
2022/03/13 07:16:56;;;;;;;23.42;13.13;;;-7.70;97.00;;;;;;4390703;32;20170;-61
2022/03/13 07:19:22;;;;;;;16.58;8.75;;;-7.80;97.90;;;;;;4377844;32;20523;-61
2022/03/13 07:21:49;;;;;;;15.63;10.77;;;-7.80;97.90;;;;;;4390738;32;20093;-62
2022/03/13 07:24:15;;;;;;;13.95;8.82;;;-7.60;96.80;;;;;;4390086;32;20078;-63
2022/03/13 07:26:41;;;;;;;12.80;7.75;;;-7.60;97.30;;;;;;4390175;32;20090;-63
2022/03/13 07:29:08;;;;;;;11.07;7.90;;;-7.20;95.10;;;;;;4389882;32;20482;-62
2022/03/13 07:31:35;;;;;;;11.15;6.65;;;-7.60;95.50;;;;;;4391200;32;20141;-61
2022/03/13 07:34:01;;;;;;;13.52;8.15;;;-7.10;95.40;;;;;;4391764;32;20073;-61
2022/03/13 07:36:28;;;;;;;11.57;6.85;;;-7.40;95.30;;;;;;4390440;32;20149;-62
2022/03/13 07:38:54;;;;;;;7.05;5.15;;;-7.10;95.30;;;;;;4377447;32;20090;-61
2022/03/13 07:41:21;;;;;;;12.75;7.75;;;-7.40;94.70;;;;;;4390171;32;20166;-61
2022/03/13 07:43:47;;;;;;;14.55;8.15;;;-6.70;94.40;;;;;;4391763;32;20070;-62
2022/03/13 07:46:13;;;;;;;14.57;9.55;;;-6.70;93.70;;;;;;4389609;32;20466;-61
2022/03/13 07:48:41;;;;;;;13.38;8.48;;;-6.90;95.40;;;;;;4377430;32;20476;-63
2022/03/13 07:51:07;;;;;;;15.13;8.52;;;-7.10;94.20;;;;;;4390553;32;20161;-62
2022/03/13 07:53:34;;;;;;;12.43;8.45;;;-7.10;93.90;;;;;;4391964;32;20085;-62
2022/03/13 07:56:00;;;;;;;14.30;8.40;;;-7.10;94.10;;;;;;4393507;32;20156;-62
2022/03/13 07:58:27;;;;;;;14.70;8.57;;;-6.90;93.40;;;;;;4403243;32;20084;-62
2022/03/13 08:00:53;;;;;;;13.20;9.00;;;-6.80;93.20;;;;;;4405190;32;20066;-62
2022/03/13 08:03:28;;;;;;;17.42;9.65;;;-6.40;92.20;;;;;;4404307;32;20247;-61
2022/03/13 08:05:54;;;;;;;15.10;8.70;;;-7.00;93.90;;;;;;4400705;32;20496;-61
2022/03/13 08:08:21;;;;;;;14.45;9.60;;;-6.80;93.90;;;;;;4390881;32;20084;-62
2022/03/13 08:10:47;;;;;;;12.20;8.15;;;-6.50;93.70;;;;;;4393386;32;20104;-61
2022/03/13 08:13:13;;;;;;;19.85;8.93;;;-6.20;92.50;;;;;;4389659;32;20445;-61
2022/03/13 08:15:39;;;;;;;15.88;8.25;;;-6.30;92.40;;;;;;4391604;32;20448;-61
2022/03/13 08:18:06;;;;;;;16.23;8.75;;;-6.20;92.10;;;;;;4389661;32;20157;-62
2022/03/13 08:20:33;;;;;;;15.18;8.63;;;-5.90;92.30;;;;;;4391472;32;20073;-62
2022/03/13 08:22:59;;;;;;;18.15;9.63;;;-5.80;91.30;;;;;;4391445;32;20097;-61
2022/03/13 08:25:26;;;;;;;14.70;9.35;;;-5.90;91.40;;;;;;4389766;32;20171;-62
2022/03/13 08:27:52;;;;;;;14.82;8.10;;;-5.40;91.50;;;;;;4390041;32;20062;-61
2022/03/13 08:30:18;;;;;;;14.98;8.77;;;-5.40;90.90;;;;;;4377309;32;20182;-61
2022/03/13 08:35:24;;;;;;;17.23;8.55;;;-5.20;89.40;;;;;;3857926;37;20424;-61
2022/03/13 08:37:55;;;;;;;13.73;8.80;;;-5.10;89.00;;;;;;4418766;32;20565;-63
2022/03/13 08:40:25;;;;;;;17.10;9.45;;;-5.50;90.20;;;;;;4406690;32;20073;-61
2022/03/13 08:42:53;;;;;;;19.35;9.75;;;-6.00;90.20;;;;;;4420270;32;20062;-62
2022/03/13 08:45:20;;;;;;;16.30;9.45;;;-5.50;90.90;;;;;;4392897;32;20496;-63
2022/03/13 08:47:47;;;;;;;13.20;7.80;;;-5.80;90.90;;;;;;4418325;32;20069;-62
2022/03/13 08:50:16;;;;;;;15.93;9.70;;;-5.30;89.60;;;;;;4418356;32;20167;-62
2022/03/13 08:52:43;;;;;;;16.25;9.80;;;-5.40;90.70;;;;;;4419616;32;20057;-63
2022/03/13 08:55:14;;;;;;;17.25;9.25;;;-5.40;90.20;;;;;;4418373;32;20149;-62
2022/03/13 08:57:44;;;;;;;16.83;8.82;;;-5.10;89.60;;;;;;4406752;32;20093;-62
2022/03/13 09:00:14;;;;;;;14.93;8.32;;;-5.00;88.40;;;;;;4418103;32;20513;-62
2022/03/13 09:02:41;;;;;;;14.27;9.73;;;-4.30;91.00;;;;;;4418093;32;20084;-62
2022/03/13 09:05:08;;;;;;;16.45;9.80;;;-4.30;88.40;;;;;;4404146;32;20162;-63
2022/03/13 09:07:35;;;;;;;13.75;8.65;;;-4.60;89.00;;;;;;4404351;32;20158;-62
2022/03/13 09:10:05;;;;;;;15.52;9.60;;;-4.70;87.30;;;;;;4415787;32;20084;-62
2022/03/13 09:12:31;;;;;;;16.10;9.63;;;-4.80;87.90;;;;;;4403594;32;20080;-62
2022/03/13 09:14:59;;;;;;;14.48;7.40;;;-4.40;89.60;;;;;;4403631;32;20515;-61
2022/03/13 09:17:25;;;;;;;13.73;8.30;;;-4.30;86.60;;;;;;4390328;32;20085;-63
2022/03/13 09:19:52;;;;;;;14.10;7.68;;;-4.30;88.50;;;;;;4404530;32;20097;-62
2022/03/13 09:22:19;;;;;;;11.02;6.62;;;-4.40;88.50;;;;;;4404516;32;20519;-62
2022/03/13 09:24:46;;;;;;;9.93;6.60;;;-4.30;85.40;;;;;;4402878;32;20073;-62
2022/03/13 09:27:13;;;;;;;10.77;6.68;;;-4.10;86.30;;;;;;4402569;32;20157;-62
2022/03/13 09:29:39;;;;;;;9.55;6.68;;;-4.00;82.80;;;;;;4404320;32;20069;-63
2022/03/13 09:32:06;;;;;;;10.32;6.47;;;-3.80;82.90;;;;;;4403723;32;20070;-63
2022/03/13 09:34:34;;;;;;;12.23;6.25;;;-3.80;81.90;;;;;;4402075;32;20089;-62
2022/03/13 09:37:00;;;;;;;10.90;6.47;;;-3.50;81.20;;;;;;4390163;32;20160;-62
2022/03/13 09:39:27;;;;;;;8.88;6.20;;;-3.70;78.90;;;;;;4403278;32;20164;-62
2022/03/13 09:41:53;;;;;;;8.95;5.10;;;-4.00;82.30;;;;;;4404280;32;20078;-63
2022/03/13 09:44:19;;;;;;;6.95;4.65;;;-3.80;79.10;;;;;;4404175;32;20082;-61
2022/03/13 09:46:46;;;;;;;9.88;5.40;;;-3.80;76.30;;;;;;4393757;32;20584;-63
2022/03/13 09:49:15;;;;;;;6.60;4.10;;;-3.70;77.90;;;;;;4392735;32;20136;-62
2022/03/13 09:51:42;;;;;;;6.57;3.92;;;-3.50;73.80;;;;;;4398672;32;20149;-62
2022/03/13 09:54:08;;;;;;;5.53;3.80;;;-3.30;70.70;;;;;;4399753;32;20152;-63
2022/03/13 09:56:38;;;;;;;5.78;3.33;;;-3.80;70.60;;;;;;4393967;32;20074;-65
2022/03/13 09:59:04;;;;;;;6.05;4.10;;;-3.20;69.60;;;;;;4393749;32;20597;-61
2022/03/13 10:01:30;;;;;;;6.72;4.12;;;-2.60;67.40;;;;;;4394298;32;20101;-62
2022/03/13 10:03:57;;;;;;;5.90;3.80;;;-3.00;68.00;;;;;;4393656;32;20072;-62
2022/03/13 10:06:25;;;;;;;6.68;4.40;;;-3.30;68.50;;;;;;4394763;32;20155;-63
2022/03/13 10:08:51;;;;;;;6.97;3.95;;;-2.20;67.80;;;;;;4397155;32;20092;-62
2022/03/13 10:11:35;;;;;;;7.85;4.90;;;-2.00;67.00;;;;;;4398518;32;20166;-63
2022/03/13 10:14:10;;;;;;;7.22;4.90;;;-3.40;68.30;;;;;;4394401;32;20160;-62
2022/03/13 10:16:40;;;;;;;7.95;4.47;;;-3.20;69.90;;;;;;4395919;32;20066;-63
2022/03/13 10:19:18;;;;;;;8.07;5.15;;;-2.70;67.80;;;;;;4402397;32;20162;-62
2022/03/13 10:22:08;;;;;;;9.00;5.50;;;-3.00;68.70;;;;;;4401883;32;20153;-63
2022/03/13 10:24:46;;;;;;;7.15;5.05;;;-3.10;69.30;;;;;;4391516;32;20071;-63
2022/03/13 10:27:22;;;;;;;8.55;4.78;;;-2.90;71.00;;;;;;4406528;32;20081;-63
2022/03/13 10:29:48;;;;;;;;;;;-2.40;68.90;;;;;;4405592;32;20062;-62
2022/03/13 10:32:15;;;;;;;6.37;4.90;;;-2.60;70.80;;;;;;4401595;32;19966;-62
2022/03/13 10:34:54;;;;;;;7.05;4.80;;;-2.50;68.90;;;;;;4401209;32;20165;-62
2022/03/13 10:37:43;;;;;;;8.73;4.70;;;-2.50;67.20;;;;;;4397283;32;20159;-63
2022/03/13 10:40:22;;;;;;;6.82;4.55;;;-2.50;66.60;;;;;;4399376;32;20496;-63
2022/03/13 10:42:51;;;;;;;9.52;5.00;;;-2.30;65.10;;;;;;4409611;32;20090;-63
2022/03/13 10:45:54;;;;;;;7.18;4.57;;;-3.00;69.60;;;;;;4385339;32;20603;-63
2022/03/13 10:48:24;;;;;;;6.78;4.60;;;-2.90;69.80;;;;;;4367033;32;20099;-62
2022/03/13 10:50:52;;;;;;;6.25;4.32;;;-2.70;71.60;;;;;;4399720;32;20078;-62
2022/03/13 10:53:20;;;;;;;7.90;4.75;;;-2.40;68.90;;;;;;4393223;32;20082;-61
2022/03/13 10:56:22;;;;;;;6.10;4.00;;;-2.70;68.50;;;;;;4391725;32;20463;-62
2022/03/13 10:58:49;;;;;;;6.78;4.47;;;-2.50;69.80;;;;;;4375190;32;20119;-61
2022/03/13 11:01:18;;;;;;;6.75;4.12;;;-2.90;69.70;;;;;;4389645;32;20174;-63
2022/03/13 11:03:55;;;;;;;7.57;4.10;;;-3.00;67.50;;;;;;4392745;32;20089;-62
2022/03/13 11:06:23;;;;;;;6.75;4.30;;;-2.90;68.50;;;;;;4393723;32;20058;-63
2022/03/13 11:08:54;;;;;;;9.25;4.50;;;-3.40;70.30;;;;;;4380616;32;20082;-63
2022/03/13 11:11:22;;;;;;;7.03;4.40;;;-3.40;73.20;;;;;;4393408;32;20170;-64
2022/03/13 11:13:55;;;;;;;7.20;4.85;;;-3.30;75.00;;;;;;4392689;32;20069;-63
2022/03/13 11:16:29;;;;;;;6.87;4.25;;;-3.00;75.20;;;;;;4392918;32;20061;-64
2022/03/13 11:19:01;;;;;;;7.70;4.57;;;-2.20;69.70;;;;;;4392917;32;20550;-62
2022/03/13 11:21:27;;;;;;;5.93;4.05;;;-3.10;72.70;;;;;;4392156;32;20166;-62
2022/03/13 11:23:54;;;;;;;6.50;4.50;;;-3.50;71.10;;;;;;4391038;32;20149;-63
2022/03/13 11:26:24;;;;;;;6.10;4.05;;;-3.80;70.10;;;;;;4393262;32;20092;-62
2022/03/13 11:28:53;;;;;;;5.65;3.75;;;-3.70;72.30;;;;;;4378630;32;20074;-61
2022/03/13 11:31:38;;;;;;;6.35;4.32;;;-3.60;71.60;;;;;;4390719;32;20562;-62
2022/03/13 11:34:22;;;;;;;5.53;3.58;;;-3.50;68.80;;;;;;4390655;32;20178;-62
2022/03/13 11:36:52;;;;;;;6.03;3.62;;;-3.00;66.10;;;;;;4390564;32;20153;-61
2022/03/13 11:39:28;;;;;;;7.35;4.57;;;-3.00;65.90;;;;;;4378084;32;20074;-61
2022/03/13 11:41:54;;;;;;;7.17;4.03;;;-2.90;67.20;;;;;;4392287;32;20161;-61
2022/03/13 11:44:23;;;;;;;6.30;3.87;;;-2.70;65.30;;;;;;4390882;32;20233;-61
2022/03/13 11:46:54;;;;;;;5.87;3.60;;;-2.50;64.20;;;;;;4392366;32;20150;-61
2022/03/13 11:49:26;;;;;;;6.50;3.95;;;-2.60;63.50;;;;;;4390787;32;20076;-63
2022/03/13 11:52:17;;;;;;;6.95;3.90;;;-2.60;63.90;;;;;;4390559;32;20508;-63
2022/03/13 11:54:53;;;;;;;5.43;3.80;;;-2.70;63.30;;;;;;4391318;32;20142;-63
2022/03/13 11:57:26;;;;;;;4.62;3.55;;;-3.00;63.70;;;;;;4391190;32;20072;-62
2022/03/13 12:00:10;;;;;;;5.28;3.50;;;-2.70;64.40;;;;;;4392050;32;20078;-61
2022/03/13 12:02:43;;;;;;;4.68;3.33;;;-2.50;64.20;;;;;;4390725;32;20166;-61
2022/03/13 12:05:29;;;;;;;5.93;3.75;;;-2.80;64.20;;;;;;4392218;32;20421;-62
2022/03/13 12:07:56;;;;;;;7.12;4.00;;;-2.50;67.90;;;;;;4390169;32;20451;-61
2022/03/13 12:10:37;;;;;;;5.53;4.07;;;-2.40;63.00;;;;;;4390653;32;20066;-63
2022/03/13 12:13:05;;;;;;;5.95;3.95;;;-2.70;70.70;;;;;;4402857;32;20069;-63
2022/03/13 12:15:32;;;;;;;5.35;3.65;;;-3.00;69.00;;;;;;4390349;32;20162;-61
2022/03/13 12:17:58;;;;;;;6.03;3.58;;;-3.00;71.00;;;;;;4390251;32;20083;-62
2022/03/13 12:20:28;;;;;;;5.32;3.78;;;-2.60;70.20;;;;;;4391089;32;20154;-62
2022/03/13 12:22:56;;;;;;;5.87;3.90;;;-2.60;68.60;;;;;;4390060;32;20100;-63
2022/03/13 12:25:30;;;;;;;5.70;3.78;;;-2.10;65.90;;;;;;4365634;32;20165;-63
2022/03/13 12:28:01;;;;;;;4.80;3.53;;;-2.50;66.40;;;;;;4391080;32;20077;-63
2022/03/13 12:30:35;;;;;;;5.25;3.45;;;-2.70;65.60;;;;;;4389898;32;20062;-62
2022/03/13 12:33:06;;;;;;;5.75;3.80;;;-2.70;64.30;;;;;;4402400;32;20096;-61
2022/03/13 12:35:32;;;;;;;6.07;3.75;;;-2.40;65.40;;;;;;4392190;32;20085;-63
2022/03/13 12:38:01;;;;;;;4.87;3.53;;;-2.70;64.30;;;;;;4390222;32;20070;-62
2022/03/13 12:40:31;;;;;;;5.50;3.78;;;-2.60;67.70;;;;;;4390206;32;20157;-63
2022/03/13 12:42:59;;;;;;;4.80;3.42;;;-2.50;69.50;;;;;;4377465;32;20077;-63